createdAt,value
2024-03-09T00:00:17.322Z,75.60
2024-03-09T00:04:20.619Z,75.38
2024-03-09T00:08:22.216Z,75.70
2024-03-09T00:12:23.680Z,76.82
2024-03-09T00:16:25.206Z,77.06
2024-03-09T00:20:36.264Z,77.68
2024-03-09T00:24:38.158Z,78.08
2024-03-09T00:28:42.023Z,77.39
2024-03-09T00:32:44.165Z,79.66
2024-03-09T00:36:47.457Z,80.64
2024-03-09T00:40:49.431Z,80.79
2024-03-09T00:44:51.039Z,80.62
2024-03-09T00:48:52.529Z,80.95
2024-03-09T00:52:54.221Z,80.80
2024-03-09T00:56:55.808Z,81.27
2024-03-09T01:00:57.329Z,81.96
2024-03-09T01:04:58.942Z,83.20
2024-03-09T01:09:01.159Z,83.04
2024-03-09T01:13:06.214Z,82.69
2024-03-09T01:17:07.793Z,84.23
2024-03-09T01:21:10.630Z,85.11
2024-03-09T01:25:12.378Z,87.32
2024-03-09T01:29:14.133Z,87.28
2024-03-09T01:33:15.741Z,87.42
2024-03-09T01:37:20.881Z,87.28
2024-03-09T01:41:26.980Z,87.11
2024-03-09T01:45:28.474Z,87.15
2024-03-09T01:49:31.792Z,88.21
2024-03-09T01:53:36.404Z,88.27
2024-03-09T01:57:38.866Z,89.64
2024-03-09T02:01:41.412Z,89.42
2024-03-09T02:05:46.653Z,89.45
2024-03-09T02:09:49.851Z,87.93
2024-03-09T02:13:52.415Z,88.56
2024-03-09T02:17:54.392Z,88.80
2024-03-09T02:21:57.098Z,93.04
2024-03-09T02:26:00.842Z,91.11
2024-03-09T02:30:03.128Z,91.28
2024-03-09T02:34:04.642Z,89.74
2024-03-09T02:38:06.451Z,90.31
2024-03-09T02:42:10.027Z,92.28
2024-03-09T02:46:12.011Z,93.55
2024-03-09T02:50:13.926Z,92.99
2024-03-09T02:54:16.482Z,92.51
2024-03-09T02:58:18.512Z,92.29
2024-03-09T03:02:38.431Z,91.87
2024-03-09T03:06:40.052Z,90.71
2024-03-09T03:10:42.096Z,92.02
2024-03-09T03:14:45.065Z,91.83
2024-03-09T03:18:50.725Z,93.23
2024-03-09T03:22:52.227Z,94.57
2024-03-09T03:26:53.962Z,96.13
2024-03-09T03:30:55.457Z,95.98
2024-03-09T03:34:56.993Z,95.97
2024-03-09T03:38:58.545Z,98.61
2024-03-09T03:43:00.250Z,97.58
2024-03-09T03:47:01.774Z,98.29
2024-03-09T03:51:03.377Z,99.43
2024-03-09T03:55:10.085Z,99.07
2024-03-09T03:59:12.318Z,98.90
2024-03-09T04:03:17.486Z,99.02
2024-03-09T04:07:19.018Z,99.89
2024-03-09T04:11:20.556Z,98.42
2024-03-09T04:15:22.137Z,99.63
2024-03-09T04:19:23.690Z,100.00
2024-03-09T04:23:25.487Z,100.00
2024-03-09T04:27:27.066Z,100.00
2024-03-09T04:31:28.822Z,100.00
2024-03-09T04:35:30.347Z,99.47
2024-03-09T04:39:37.328Z,100.00
2024-03-09T04:43:41.527Z,100.00
2024-03-09T04:47:43.453Z,99.67
2024-03-09T04:51:45.042Z,100.00
2024-03-09T04:55:52.033Z,100.00
2024-03-09T04:59:53.603Z,100.00
2024-03-09T05:03:55.097Z,100.00
2024-03-09T05:07:56.539Z,100.00
2024-03-09T05:11:59.135Z,100.00
2024-03-09T05:16:00.798Z,100.00
2024-03-09T05:20:12.213Z,100.00
2024-03-09T05:24:13.831Z,100.00
2024-03-09T05:28:17.726Z,100.00
2024-03-09T05:32:23.476Z,100.00
2024-03-09T05:36:25.124Z,100.00
2024-03-09T05:40:28.317Z,100.00
2024-03-09T05:44:29.848Z,100.00
2024-03-09T05:48:34.104Z,100.00
2024-03-09T05:52:35.609Z,100.00
2024-03-09T05:56:38.384Z,100.00
2024-03-09T06:00:39.911Z,100.00
2024-03-09T06:04:42.152Z,100.00
2024-03-09T06:08:43.653Z,100.00
2024-03-09T06:12:48.297Z,100.00
2024-03-09T06:16:50.033Z,100.00
2024-03-09T06:20:52.163Z,100.00
2024-03-09T06:24:53.753Z,100.00
2024-03-09T06:28:55.261Z,100.00
2024-03-09T06:32:59.188Z,100.00
2024-03-09T06:37:00.901Z,100.00
2024-03-09T06:41:03.635Z,100.00
2024-03-09T06:45:09.231Z,100.00
2024-03-09T06:49:10.747Z,100.00
2024-03-09T06:53:12.330Z,100.00
2024-03-09T06:57:13.941Z,99.89
2024-03-09T07:01:21.813Z,99.94
2024-03-09T07:05:23.564Z,97.59
2024-03-09T07:09:25.977Z,98.27
2024-03-09T07:13:27.654Z,96.98
2024-03-09T07:17:32.860Z,95.65
2024-03-09T07:21:34.472Z,94.29
2024-03-09T07:25:36.044Z,94.21
2024-03-09T07:29:37.861Z,93.27
2024-03-09T07:33:39.531Z,91.43
2024-03-09T07:37:46.978Z,88.50
2024-03-09T07:41:48.574Z,87.13
2024-03-09T07:45:50.132Z,87.66
2024-03-09T07:49:51.703Z,85.06
2024-03-09T07:53:53.638Z,85.01
2024-03-09T07:58:08.784Z,84.80
2024-03-09T08:02:16.731Z,82.39
2024-03-09T08:06:19.723Z,81.34
2024-03-09T08:10:25.338Z,78.79
2024-03-09T08:14:31.326Z,77.41
2024-03-09T08:18:33.355Z,75.04
2024-03-09T08:22:35.359Z,74.87
2024-03-09T08:26:37.108Z,75.14
2024-03-09T08:30:38.754Z,76.19
2024-03-09T08:34:40.302Z,74.63
2024-03-09T08:38:42.223Z,71.97
2024-03-09T08:42:45.338Z,70.29
2024-03-09T08:46:46.942Z,69.48
2024-03-09T08:50:48.511Z,69.77
2024-03-09T08:54:51.243Z,68.20
2024-03-09T08:58:59.718Z,66.52
2024-03-09T09:03:04.377Z,66.82
2024-03-09T09:07:06.040Z,65.12
2024-03-09T09:11:07.706Z,65.01
2024-03-09T09:15:10.222Z,63.87
2024-03-09T09:19:11.953Z,62.82
2024-03-09T09:23:13.561Z,61.33
2024-03-09T09:27:15.138Z,60.31
2024-03-09T09:31:16.900Z,60.03
2024-03-09T09:35:18.851Z,58.62
2024-03-09T09:39:26.284Z,57.54
2024-03-09T09:43:29.441Z,56.91
2024-03-09T09:47:31.823Z,56.15
2024-03-09T09:51:36.769Z,56.37
2024-03-09T09:55:38.830Z,56.16
2024-03-09T09:59:40.592Z,55.93
2024-03-09T10:03:42.153Z,55.41
2024-03-09T10:07:58.808Z,54.96
2024-03-09T10:12:01.231Z,54.47
2024-03-09T10:16:03.965Z,54.26
2024-03-09T10:20:07.610Z,52.53
2024-03-09T10:24:09.396Z,52.11
2024-03-09T10:28:12.132Z,51.57
2024-03-09T10:32:13.924Z,51.44
2024-03-09T10:36:16.813Z,50.52
2024-03-09T10:40:21.780Z,50.85
2024-03-09T10:44:24.991Z,50.21
2024-03-09T10:48:28.404Z,49.16
2024-03-09T10:52:34.801Z,48.22
2024-03-09T10:56:40.796Z,47.75
2024-03-09T11:00:50.701Z,48.12
2024-03-09T11:04:52.823Z,47.04
2024-03-09T11:08:57.882Z,45.98
2024-03-09T11:12:59.632Z,46.58
2024-03-09T11:17:01.906Z,46.74
2024-03-09T11:21:04.057Z,48.87
2024-03-09T11:25:12.393Z,50.11
2024-03-09T11:29:14.558Z,51.10
2024-03-09T11:33:19.509Z,51.50
2024-03-09T11:37:21.010Z,53.03
2024-03-09T11:41:26.032Z,52.47
2024-03-09T11:45:30.536Z,53.91
2024-03-09T11:49:34.614Z,56.31
2024-03-09T11:53:36.469Z,54.03
2024-03-09T11:57:39.343Z,54.10
2024-03-09T12:01:41.522Z,54.22
2024-03-09T12:05:44.360Z,54.57
2024-03-09T12:09:46.627Z,54.51
2024-03-09T12:13:48.654Z,54.98
2024-03-09T12:17:50.362Z,55.00
2024-03-09T12:21:53.251Z,55.02
2024-03-09T12:25:54.924Z,55.39
2024-03-09T12:29:56.794Z,55.59
2024-03-09T12:33:59.444Z,56.53
2024-03-09T12:38:14.081Z,56.10
2024-03-09T12:42:16.263Z,55.64
2024-03-09T12:46:19.156Z,55.58
2024-03-09T12:50:22.504Z,56.87
2024-03-09T12:54:25.820Z,56.58
2024-03-09T12:58:27.380Z,56.67
2024-03-09T13:02:34.664Z,56.78
2024-03-09T13:06:37.436Z,57.25
2024-03-09T13:10:41.332Z,57.13
2024-03-09T13:14:43.808Z,56.89
2024-03-09T13:18:48.579Z,56.40
2024-03-09T13:22:50.667Z,58.21
2024-03-09T13:26:52.975Z,57.56
2024-03-09T13:30:54.757Z,54.86
2024-03-09T13:34:56.301Z,54.05
2024-03-09T13:38:57.815Z,49.56
2024-03-09T13:42:59.711Z,49.80
2024-03-09T13:47:01.392Z,48.09
2024-03-09T13:51:03.864Z,47.32
2024-03-09T13:55:05.918Z,49.04
2024-03-09T13:59:15.131Z,49.84
2024-03-09T14:03:16.949Z,50.79
2024-03-09T14:07:23.616Z,52.55
2024-03-09T14:11:30.052Z,52.69
2024-03-09T14:15:34.175Z,53.56
2024-03-09T14:19:40.303Z,53.66
2024-03-09T14:23:43.948Z,54.07
2024-03-09T14:27:45.637Z,54.21
2024-03-09T14:31:47.854Z,53.15
2024-03-09T14:35:49.810Z,53.17
2024-03-09T14:39:51.409Z,53.73
2024-03-09T14:43:53.897Z,53.85
2024-03-09T14:48:00.285Z,54.26
2024-03-09T14:52:02.395Z,54.89
2024-03-09T14:56:05.356Z,54.30
2024-03-09T15:00:16.170Z,55.17
2024-03-09T15:04:17.699Z,54.58
2024-03-09T15:08:20.064Z,55.51
2024-03-09T15:12:22.180Z,56.57
2024-03-09T15:16:25.812Z,56.73
2024-03-09T15:20:28.346Z,56.74
2024-03-09T15:24:30.100Z,57.11
2024-03-09T15:28:31.866Z,56.97
2024-03-09T15:32:33.552Z,57.55
2024-03-09T15:36:38.244Z,57.18
2024-03-09T15:40:39.876Z,58.28
2024-03-09T15:44:41.388Z,58.29
2024-03-09T15:48:42.926Z,58.46
2024-03-09T15:52:45.092Z,58.74
2024-03-09T15:56:48.544Z,58.80
2024-03-09T16:00:50.132Z,58.48
2024-03-09T16:04:51.671Z,58.22
2024-03-09T16:08:53.906Z,58.48
2024-03-09T16:12:56.881Z,58.69
2024-03-09T16:16:58.457Z,59.26
2024-03-09T16:21:07.785Z,59.73
2024-03-09T16:25:10.189Z,59.92
2024-03-09T16:29:11.769Z,62.62
2024-03-09T16:33:15.051Z,60.12
2024-03-09T16:37:16.811Z,59.83
2024-03-09T16:41:24.241Z,59.84
2024-03-09T16:45:29.034Z,60.75
2024-03-09T16:49:33.816Z,60.85
2024-03-09T16:53:35.725Z,61.40
2024-03-09T16:57:38.593Z,62.10
2024-03-09T17:01:44.730Z,62.49
2024-03-09T17:05:46.455Z,63.12
2024-03-09T17:09:48.046Z,63.62
2024-03-09T17:13:52.076Z,63.79
2024-03-09T17:18:00.458Z,64.32
2024-03-09T17:22:03.838Z,63.93
2024-03-09T17:26:05.517Z,64.44
2024-03-09T17:30:08.073Z,63.91
2024-03-09T17:34:09.580Z,64.54
2024-03-09T17:38:11.845Z,64.93
2024-03-09T17:42:14.019Z,64.22
2024-03-09T17:46:17.328Z,64.79
2024-03-09T17:50:20.378Z,64.73
2024-03-09T17:54:22.213Z,64.96
2024-03-09T17:58:23.793Z,65.68
2024-03-09T18:02:28.010Z,66.54
2024-03-09T18:06:30.668Z,66.22
2024-03-09T18:10:33.008Z,66.56
2024-03-09T18:14:34.822Z,67.13
2024-03-09T18:18:36.976Z,67.52
2024-03-09T18:22:38.587Z,68.46
2024-03-09T18:26:40.061Z,69.18
2024-03-09T18:30:41.683Z,68.83
2024-03-09T18:34:43.360Z,67.48
2024-03-09T18:38:45.367Z,67.83
2024-03-09T18:42:47.704Z,68.87
2024-03-09T18:46:54.410Z,68.92
2024-03-09T18:50:57.019Z,67.84
2024-03-09T18:54:58.620Z,67.86
2024-03-09T18:59:01.635Z,69.05
2024-03-09T19:03:07.887Z,68.63
2024-03-09T19:07:10.883Z,68.46
2024-03-09T19:11:12.699Z,69.34
2024-03-09T19:15:15.060Z,69.81
2024-03-09T19:19:16.673Z,70.38
2024-03-09T19:23:18.359Z,71.72
2024-03-09T19:27:20.179Z,72.13
2024-03-09T19:31:23.699Z,73.06
2024-03-09T19:35:27.865Z,74.93
2024-03-09T19:39:29.925Z,75.85
2024-03-09T19:43:31.439Z,74.94
2024-03-09T19:47:33.339Z,75.58
2024-03-09T19:51:34.928Z,77.33
2024-03-09T19:55:36.740Z,79.77
2024-03-09T19:59:38.384Z,78.10
2024-03-09T20:03:40.688Z,80.28
2024-03-09T20:07:42.682Z,80.74
2024-03-09T20:11:44.866Z,82.98
2024-03-09T20:15:46.441Z,82.39
2024-03-09T20:19:48.433Z,83.40
2024-03-09T20:23:50.469Z,84.78
2024-03-09T20:27:52.648Z,83.37
2024-03-09T20:31:54.807Z,82.61
2024-03-09T20:35:57.853Z,84.37
2024-03-09T20:40:07.376Z,85.34
2024-03-09T20:44:09.941Z,85.88
2024-03-09T20:48:14.228Z,84.66
2024-03-09T20:52:19.567Z,85.21
2024-03-09T20:56:21.936Z,87.07
2024-03-09T21:00:24.693Z,87.58
2024-03-09T21:04:26.518Z,87.21
2024-03-09T21:08:28.163Z,87.29
2024-03-09T21:12:31.140Z,87.24
2024-03-09T21:16:32.799Z,87.38
2024-03-09T21:20:34.619Z,88.07
2024-03-09T21:24:36.374Z,86.79
2024-03-09T21:28:40.633Z,93.03
2024-03-09T21:32:44.168Z,86.78
2024-03-09T21:36:47.199Z,84.04
2024-03-09T21:40:49.842Z,87.43
2024-03-09T21:44:52.477Z,87.41
2024-03-09T21:48:54.261Z,88.90
2024-03-09T21:52:56.359Z,87.81
2024-03-09T21:56:57.937Z,88.43
2024-03-09T22:00:59.461Z,89.45
2024-03-09T22:05:01.088Z,91.22
2024-03-09T22:09:03.037Z,90.19
2024-03-09T22:13:05.370Z,90.63
2024-03-09T22:17:07.069Z,90.63
2024-03-09T22:21:10.851Z,91.01
2024-03-09T22:25:14.636Z,91.58
2024-03-09T22:29:19.380Z,93.33
2024-03-09T22:33:21.006Z,91.86
2024-03-09T22:37:22.638Z,91.79
2024-03-09T22:41:24.327Z,91.15
2024-03-09T22:45:26.765Z,93.25
2024-03-09T22:49:28.242Z,91.43
2024-03-09T22:53:30.696Z,92.91
2024-03-09T22:57:32.357Z,93.85
2024-03-09T23:01:49.474Z,93.96
2024-03-09T23:05:51.092Z,92.97
2024-03-09T23:09:52.598Z,94.33
2024-03-09T23:13:54.249Z,93.39
2024-03-09T23:17:56.389Z,93.22
2024-03-09T23:22:01.791Z,92.45
2024-03-09T23:26:03.457Z,95.32
2024-03-09T23:30:05.477Z,95.42
2024-03-09T23:34:08.097Z,95.06
2024-03-09T23:38:10.364Z,95.93
2024-03-09T23:42:12.840Z,97.47
2024-03-09T23:46:14.316Z,97.31
2024-03-09T23:50:18.360Z,96.89
2024-03-09T23:54:20.523Z,97.07
2024-03-09T23:58:21.957Z,97.35
